Quick Links (Output Below):   Max & Min Temps   /   Climate Reports   /   Zone Forecasts
River Forecasts   /   Forestry Forecasts   /   Aviation Forecasts   /   Radars   /   Features

Terminal Aerodrome Forecast (El Dorado)

Pick a Site:
Arkadelphia | El Dorado | Fayetteville | Fort Smith | Harrison | Highfill | Hot Springs | Jonesboro
Little Rock | Monticello | Mountain Home | Pine Bluff | Texarkana
 Forecast 

KELD 111745Z 1118/1218 33007KT P6SM FEW250
     FM120000 01003KT P6SM FEW250
     FM121500 34004KT P6SM FEW250=


 Latest METARs (Observations) 
How to Decode METARs
23Z KELD 112253Z AUTO 03007KT 10SM CLR 18/03 A3010 RMK AO2 SLP190
         T01780028
         
22Z KELD 112153Z AUTO 04010KT 10SM CLR 22/04 A3008 RMK AO2 SLP184
         T02220039
         
21Z KELD 112053Z AUTO 07003KT 10SM CLR 22/03 A3006 RMK AO2 SLP178
         T02220028 56012
         
20Z KELD 111953Z AUTO VRB03KT 10SM CLR 22/03 A3007 RMK AO2 SLP180
         T02170028
         
19Z KELD 111853Z AUTO 04004KT 10SM CLR 21/03 A3008 RMK AO2 SLP184
         T02110028
         
18Z KELD 111753Z AUTO 30008KT 10SM CLR 20/03 A3010 RMK AO2 SLP190
         T02000028 10200 20111 50003
         
17Z KELD 111653Z AUTO 28007KT 10SM CLR 18/03 A3011 RMK AO2 SLP195
         T01780028
         
16Z KELD 111553Z AUTO 26010G17KT 10SM CLR 17/03 A3011 RMK AO2 SLP194
         T01670033
         
15Z KELD 111453Z AUTO 23007KT 10SM CLR 14/04 A3009 RMK AO2 SLP188
         T01390039 53018
         
14Z KELD 111353Z AUTO 22006KT 10SM CLR 12/04 A3007 RMK AO2 SLP182
         T01170039
         
***** Today's Observations (Above) *****


Back to Main Page
http://www.srh.noaa.gov/lzk/qfcst.php

USA.gov is the U.S. government's official web portal to all federal, state and local government web resources and services.